sensor_id;sensor_type;location;lat;lon;timestamp;P1;durP1;ratioP1;P2;durP2;ratioP2
24801;SDS011;12898;50.520;12.152;2023-04-23T00:01:03;9.10;;;4.95;;
24801;SDS011;12898;50.520;12.152;2023-04-23T00:03:30;8.80;;;5.22;;
24801;SDS011;12898;50.520;12.152;2023-04-23T00:06:06;6.47;;;4.63;;
24801;SDS011;12898;50.520;12.152;2023-04-23T00:08:35;8.55;;;5.07;;
24801;SDS011;12898;50.520;12.152;2023-04-23T00:11:04;8.20;;;5.25;;
24801;SDS011;12898;50.520;12.152;2023-04-23T00:13:31;9.43;;;4.75;;
24801;SDS011;12898;50.520;12.152;2023-04-23T00:15:57;8.75;;;5.15;;
24801;SDS011;12898;50.520;12.152;2023-04-23T00:18:24;10.02;;;5.05;;
24801;SDS011;12898;50.520;12.152;2023-04-23T00:20:50;8.30;;;5.25;;
24801;SDS011;12898;50.520;12.152;2023-04-23T00:23:16;8.80;;;5.63;;
24801;SDS011;12898;50.520;12.152;2023-04-23T00:25:42;9.00;;;5.60;;
24801;SDS011;12898;50.520;12.152;2023-04-23T00:28:08;9.98;;;5.28;;
24801;SDS011;12898;50.520;12.152;2023-04-23T00:30:33;9.65;;;5.50;;
24801;SDS011;12898;50.520;12.152;2023-04-23T00:32:59;11.45;;;6.00;;
24801;SDS011;12898;50.520;12.152;2023-04-23T00:35:25;12.18;;;6.15;;
24801;SDS011;12898;50.520;12.152;2023-04-23T00:37:51;10.75;;;6.15;;
24801;SDS011;12898;50.520;12.152;2023-04-23T00:40:16;10.30;;;5.90;;
24801;SDS011;12898;50.520;12.152;2023-04-23T00:42:42;11.52;;;6.63;;
24801;SDS011;12898;50.520;12.152;2023-04-23T00:45:08;9.18;;;5.93;;
24801;SDS011;12898;50.520;12.152;2023-04-23T00:47:35;10.48;;;6.15;;
24801;SDS011;12898;50.520;12.152;2023-04-23T00:50:01;11.85;;;6.28;;
24801;SDS011;12898;50.520;12.152;2023-04-23T00:52:27;12.27;;;6.35;;
24801;SDS011;12898;50.520;12.152;2023-04-23T00:54:54;12.07;;;6.45;;
24801;SDS011;12898;50.520;12.152;2023-04-23T00:57:20;9.77;;;6.15;;
24801;SDS011;12898;50.520;12.152;2023-04-23T00:59:47;11.57;;;6.50;;
24801;SDS011;12898;50.520;12.152;2023-04-23T01:02:13;10.43;;;6.15;;
24801;SDS011;12898;50.520;12.152;2023-04-23T01:04:39;12.18;;;6.70;;
24801;SDS011;12898;50.520;12.152;2023-04-23T01:07:08;13.50;;;6.00;;
24801;SDS011;12898;50.520;12.152;2023-04-23T01:09:36;9.65;;;6.03;;
24801;SDS011;12898;50.520;12.152;2023-04-23T01:12:01;12.57;;;6.53;;
24801;SDS011;12898;50.520;12.152;2023-04-23T01:14:30;10.38;;;5.97;;
24801;SDS011;12898;50.520;12.152;2023-04-23T01:16:56;12.05;;;6.82;;
24801;SDS011;12898;50.520;12.152;2023-04-23T01:19:22;11.60;;;6.88;;
24801;SDS011;12898;50.520;12.152;2023-04-23T01:21:48;11.85;;;6.85;;
24801;SDS011;12898;50.520;12.152;2023-04-23T01:24:15;11.88;;;6.57;;
24801;SDS011;12898;50.520;12.152;2023-04-23T01:26:40;11.18;;;6.28;;
24801;SDS011;12898;50.520;12.152;2023-04-23T01:29:06;8.98;;;5.60;;
24801;SDS011;12898;50.520;12.152;2023-04-23T01:31:33;9.38;;;6.35;;
24801;SDS011;12898;50.520;12.152;2023-04-23T01:33:59;10.13;;;6.38;;
24801;SDS011;12898;50.520;12.152;2023-04-23T01:36:26;12.38;;;5.82;;
24801;SDS011;12898;50.520;12.152;2023-04-23T01:38:52;12.90;;;5.95;;
24801;SDS011;12898;50.520;12.152;2023-04-23T01:41:17;12.13;;;6.20;;
24801;SDS011;12898;50.520;12.152;2023-04-23T01:43:46;10.05;;;5.93;;
24801;SDS011;12898;50.520;12.152;2023-04-23T01:46:12;11.85;;;6.53;;
24801;SDS011;12898;50.520;12.152;2023-04-23T01:48:37;12.70;;;7.28;;
24801;SDS011;12898;50.520;12.152;2023-04-23T01:51:03;12.65;;;8.05;;
24801;SDS011;12898;50.520;12.152;2023-04-23T01:53:29;12.98;;;7.32;;
24801;SDS011;12898;50.520;12.152;2023-04-23T01:55:55;13.15;;;7.18;;
24801;SDS011;12898;50.520;12.152;2023-04-23T01:58:22;12.98;;;7.13;;
24801;SDS011;12898;50.520;12.152;2023-04-23T02:00:48;11.73;;;6.28;;
24801;SDS011;12898;50.520;12.152;2023-04-23T02:03:14;11.40;;;6.43;;
24801;SDS011;12898;50.520;12.152;2023-04-23T02:05:41;10.75;;;6.65;;
24801;SDS011;12898;50.520;12.152;2023-04-23T02:08:07;9.77;;;5.88;;
24801;SDS011;12898;50.520;12.152;2023-04-23T02:10:33;9.35;;;5.30;;
24801;SDS011;12898;50.520;12.152;2023-04-23T02:12:59;9.82;;;5.45;;
24801;SDS011;12898;50.520;12.152;2023-04-23T02:15:26;9.60;;;5.40;;
24801;SDS011;12898;50.520;12.152;2023-04-23T02:17:52;9.23;;;5.07;;
24801;SDS011;12898;50.520;12.152;2023-04-23T02:20:18;7.68;;;5.10;;
24801;SDS011;12898;50.520;12.152;2023-04-23T02:22:45;8.63;;;4.88;;
24801;SDS011;12898;50.520;12.152;2023-04-23T02:25:13;10.40;;;5.65;;
24801;SDS011;12898;50.520;12.152;2023-04-23T02:27:41;11.55;;;5.20;;
24801;SDS011;12898;50.520;12.152;2023-04-23T02:30:07;9.88;;;4.95;;
24801;SDS011;12898;50.520;12.152;2023-04-23T02:32:35;8.68;;;4.70;;
24801;SDS011;12898;50.520;12.152;2023-04-23T02:35:02;9.02;;;5.13;;
24801;SDS011;12898;50.520;12.152;2023-04-23T02:37:30;11.07;;;5.88;;
24801;SDS011;12898;50.520;12.152;2023-04-23T02:39:57;9.98;;;5.00;;
24801;SDS011;12898;50.520;12.152;2023-04-23T02:42:23;11.57;;;4.90;;
24801;SDS011;12898;50.520;12.152;2023-04-23T02:44:48;7.40;;;4.45;;
24801;SDS011;12898;50.520;12.152;2023-04-23T02:47:14;8.88;;;5.00;;
24801;SDS011;12898;50.520;12.152;2023-04-23T02:49:40;8.25;;;5.40;;
24801;SDS011;12898;50.520;12.152;2023-04-23T02:52:05;12.27;;;6.40;;
24801;SDS011;12898;50.520;12.152;2023-04-23T02:54:31;14.70;;;6.55;;
24801;SDS011;12898;50.520;12.152;2023-04-23T02:56:57;13.45;;;6.63;;
24801;SDS011;12898;50.520;12.152;2023-04-23T02:59:23;10.95;;;5.72;;
24801;SDS011;12898;50.520;12.152;2023-04-23T03:01:49;10.73;;;5.20;;
24801;SDS011;12898;50.520;12.152;2023-04-23T03:04:15;9.27;;;5.72;;
24801;SDS011;12898;50.520;12.152;2023-04-23T03:06:42;11.00;;;5.85;;
24801;SDS011;12898;50.520;12.152;2023-04-23T03:09:08;10.73;;;5.32;;
24801;SDS011;12898;50.520;12.152;2023-04-23T03:11:33;10.13;;;5.25;;
24801;SDS011;12898;50.520;12.152;2023-04-23T03:13:59;7.45;;;4.88;;
24801;SDS011;12898;50.520;12.152;2023-04-23T03:16:26;11.25;;;5.30;;
24801;SDS011;12898;50.520;12.152;2023-04-23T03:18:53;8.02;;;4.68;;
24801;SDS011;12898;50.520;12.152;2023-04-23T03:21:18;9.30;;;5.15;;
24801;SDS011;12898;50.520;12.152;2023-04-23T03:23:44;8.50;;;4.68;;
24801;SDS011;12898;50.520;12.152;2023-04-23T03:26:10;7.43;;;4.45;;
24801;SDS011;12898;50.520;12.152;2023-04-23T03:28:35;8.43;;;4.68;;
24801;SDS011;12898;50.520;12.152;2023-04-23T03:31:01;9.68;;;4.70;;
24801;SDS011;12898;50.520;12.152;2023-04-23T03:33:27;7.45;;;4.13;;
24801;SDS011;12898;50.520;12.152;2023-04-23T03:35:52;9.68;;;4.80;;
24801;SDS011;12898;50.520;12.152;2023-04-23T03:38:18;7.93;;;4.32;;
24801;SDS011;12898;50.520;12.152;2023-04-23T03:40:44;6.80;;;4.30;;
24801;SDS011;12898;50.520;12.152;2023-04-23T03:43:09;8.40;;;3.95;;
24801;SDS011;12898;50.520;12.152;2023-04-23T03:45:35;9.82;;;4.05;;
24801;SDS011;12898;50.520;12.152;2023-04-23T03:48:01;6.68;;;3.40;;
24801;SDS011;12898;50.520;12.152;2023-04-23T03:50:26;6.78;;;3.47;;
24801;SDS011;12898;50.520;12.152;2023-04-23T03:52:53;10.70;;;4.13;;
24801;SDS011;12898;50.520;12.152;2023-04-23T03:55:19;5.10;;;3.00;;
24801;SDS011;12898;50.520;12.152;2023-04-23T03:57:45;4.43;;;2.92;;
24801;SDS011;12898;50.520;12.152;2023-04-23T04:00:11;6.70;;;3.05;;
24801;SDS011;12898;50.520;12.152;2023-04-23T04:02:37;5.35;;;2.95;;
24801;SDS011;12898;50.520;12.152;2023-04-23T04:05:04;10.73;;;3.58;;
24801;SDS011;12898;50.520;12.152;2023-04-23T04:07:30;6.20;;;3.42;;
24801;SDS011;12898;50.520;12.152;2023-04-23T04:09:57;7.57;;;3.20;;
24801;SDS011;12898;50.520;12.152;2023-04-23T04:12:23;8.00;;;3.33;;
24801;SDS011;12898;50.520;12.152;2023-04-23T04:14:49;6.75;;;3.50;;
24801;SDS011;12898;50.520;12.152;2023-04-23T04:17:15;6.80;;;3.50;;
24801;SDS011;12898;50.520;12.152;2023-04-23T04:19:41;6.25;;;3.25;;
24801;SDS011;12898;50.520;12.152;2023-04-23T04:22:07;8.23;;;3.83;;
24801;SDS011;12898;50.520;12.152;2023-04-23T04:24:33;7.30;;;3.45;;
24801;SDS011;12898;50.520;12.152;2023-04-23T04:26:59;6.70;;;3.33;;
24801;SDS011;12898;50.520;12.152;2023-04-23T04:29:26;7.50;;;4.05;;
24801;SDS011;12898;50.520;12.152;2023-04-23T04:31:52;8.90;;;3.70;;
24801;SDS011;12898;50.520;12.152;2023-04-23T04:34:19;8.25;;;3.60;;
24801;SDS011;12898;50.520;12.152;2023-04-23T04:36:45;11.43;;;4.43;;
24801;SDS011;12898;50.520;12.152;2023-04-23T04:39:11;5.05;;;3.28;;
24801;SDS011;12898;50.520;12.152;2023-04-23T04:41:38;8.38;;;4.22;;
24801;SDS011;12898;50.520;12.152;2023-04-23T04:44:05;6.45;;;3.53;;
24801;SDS011;12898;50.520;12.152;2023-04-23T04:46:34;8.48;;;4.13;;
24801;SDS011;12898;50.520;12.152;2023-04-23T04:49:10;7.53;;;4.13;;
24801;SDS011;12898;50.520;12.152;2023-04-23T04:51:37;7.40;;;4.20;;
24801;SDS011;12898;50.520;12.152;2023-04-23T04:54:04;6.07;;;3.50;;
24801;SDS011;12898;50.520;12.152;2023-04-23T04:56:31;9.25;;;4.30;;
24801;SDS011;12898;50.520;12.152;2023-04-23T04:58:58;5.05;;;3.35;;
24801;SDS011;12898;50.520;12.152;2023-04-23T05:01:25;8.40;;;4.25;;
24801;SDS011;12898;50.520;12.152;2023-04-23T05:03:52;10.70;;;3.90;;
24801;SDS011;12898;50.520;12.152;2023-04-23T05:06:19;6.95;;;3.90;;
24801;SDS011;12898;50.520;12.152;2023-04-23T05:08:45;5.97;;;3.53;;
24801;SDS011;12898;50.520;12.152;2023-04-23T05:11:17;11.57;;;3.90;;
24801;SDS011;12898;50.520;12.152;2023-04-23T05:13:44;6.72;;;3.45;;
24801;SDS011;12898;50.520;12.152;2023-04-23T05:16:10;6.15;;;3.45;;
24801;SDS011;12898;50.520;12.152;2023-04-23T05:18:37;6.22;;;3.50;;
24801;SDS011;12898;50.520;12.152;2023-04-23T05:21:03;7.18;;;3.63;;
24801;SDS011;12898;50.520;12.152;2023-04-23T05:23:30;8.82;;;3.90;;
24801;SDS011;12898;50.520;12.152;2023-04-23T05:25:56;8.82;;;3.53;;
24801;SDS011;12898;50.520;12.152;2023-04-23T05:28:22;7.15;;;3.90;;
24801;SDS011;12898;50.520;12.152;2023-04-23T05:30:49;8.10;;;3.40;;
24801;SDS011;12898;50.520;12.152;2023-04-23T05:33:15;6.65;;;3.30;;
24801;SDS011;12898;50.520;12.152;2023-04-23T05:35:41;9.85;;;4.38;;
24801;SDS011;12898;50.520;12.152;2023-04-23T05:38:07;5.38;;;3.30;;
24801;SDS011;12898;50.520;12.152;2023-04-23T05:40:33;11.50;;;4.55;;
24801;SDS011;12898;50.520;12.152;2023-04-23T05:42:58;7.43;;;4.13;;
24801;SDS011;12898;50.520;12.152;2023-04-23T05:45:25;5.55;;;3.55;;
24801;SDS011;12898;50.520;12.152;2023-04-23T05:47:51;6.05;;;3.38;;
24801;SDS011;12898;50.520;12.152;2023-04-23T05:50:17;7.50;;;3.88;;
24801;SDS011;12898;50.520;12.152;2023-04-23T05:52:43;7.63;;;3.63;;
24801;SDS011;12898;50.520;12.152;2023-04-23T05:55:09;8.50;;;3.78;;
24801;SDS011;12898;50.520;12.152;2023-04-23T05:57:35;6.53;;;4.00;;
24801;SDS011;12898;50.520;12.152;2023-04-23T06:00:02;7.55;;;3.95;;
24801;SDS011;12898;50.520;12.152;2023-04-23T06:02:29;6.93;;;3.67;;
24801;SDS011;12898;50.520;12.152;2023-04-23T06:04:57;9.55;;;3.88;;
24801;SDS011;12898;50.520;12.152;2023-04-23T06:07:23;6.38;;;3.72;;
24801;SDS011;12898;50.520;12.152;2023-04-23T06:09:49;8.50;;;3.70;;
24801;SDS011;12898;50.520;12.152;2023-04-23T06:12:14;8.60;;;4.03;;
24801;SDS011;12898;50.520;12.152;2023-04-23T06:14:40;8.23;;;4.10;;
24801;SDS011;12898;50.520;12.152;2023-04-23T06:17:06;7.18;;;3.58;;
24801;SDS011;12898;50.520;12.152;2023-04-23T06:19:31;7.88;;;3.88;;
24801;SDS011;12898;50.520;12.152;2023-04-23T06:21:57;7.63;;;3.83;;
24801;SDS011;12898;50.520;12.152;2023-04-23T06:24:23;8.73;;;3.72;;
24801;SDS011;12898;50.520;12.152;2023-04-23T06:26:49;7.57;;;3.40;;
24801;SDS011;12898;50.520;12.152;2023-04-23T06:29:14;6.28;;;3.47;;
24801;SDS011;12898;50.520;12.152;2023-04-23T06:31:40;5.90;;;3.47;;
24801;SDS011;12898;50.520;12.152;2023-04-23T06:34:06;6.10;;;3.60;;
24801;SDS011;12898;50.520;12.152;2023-04-23T06:36:31;8.30;;;3.65;;
24801;SDS011;12898;50.520;12.152;2023-04-23T06:38:57;7.35;;;3.63;;
24801;SDS011;12898;50.520;12.152;2023-04-23T06:41:23;4.43;;;3.10;;
24801;SDS011;12898;50.520;12.152;2023-04-23T06:43:49;6.20;;;3.38;;
24801;SDS011;12898;50.520;12.152;2023-04-23T06:46:15;7.13;;;3.03;;
24801;SDS011;12898;50.520;12.152;2023-04-23T06:48:40;8.20;;;3.17;;
24801;SDS011;12898;50.520;12.152;2023-04-23T06:51:06;5.65;;;3.00;;
24801;SDS011;12898;50.520;12.152;2023-04-23T06:53:32;5.47;;;2.90;;
24801;SDS011;12898;50.520;12.152;2023-04-23T06:55:58;5.90;;;3.15;;
24801;SDS011;12898;50.520;12.152;2023-04-23T06:58:23;6.38;;;3.25;;
24801;SDS011;12898;50.520;12.152;2023-04-23T07:00:55;6.60;;;3.58;;
24801;SDS011;12898;50.520;12.152;2023-04-23T07:03:24;8.35;;;3.72;;
24801;SDS011;12898;50.520;12.152;2023-04-23T07:05:52;7.63;;;3.60;;
24801;SDS011;12898;50.520;12.152;2023-04-23T07:08:18;5.43;;;3.22;;
24801;SDS011;12898;50.520;12.152;2023-04-23T07:10:45;8.15;;;3.70;;
24801;SDS011;12898;50.520;12.152;2023-04-23T07:13:10;5.78;;;3.13;;
24801;SDS011;12898;50.520;12.152;2023-04-23T07:15:36;5.93;;;2.70;;
24801;SDS011;12898;50.520;12.152;2023-04-23T07:18:02;6.53;;;2.50;;
24801;SDS011;12898;50.520;12.152;2023-04-23T07:20:29;4.38;;;2.50;;
24801;SDS011;12898;50.520;12.152;2023-04-23T07:22:54;4.82;;;2.50;;
24801;SDS011;12898;50.520;12.152;2023-04-23T07:25:22;3.45;;;2.25;;
24801;SDS011;12898;50.520;12.152;2023-04-23T07:27:50;3.25;;;2.40;;
24801;SDS011;12898;50.520;12.152;2023-04-23T07:30:15;4.15;;;2.50;;
24801;SDS011;12898;50.520;12.152;2023-04-23T07:32:42;4.30;;;2.83;;
24801;SDS011;12898;50.520;12.152;2023-04-23T07:35:07;6.20;;;2.75;;
24801;SDS011;12898;50.520;12.152;2023-04-23T07:37:34;5.88;;;3.15;;
24801;SDS011;12898;50.520;12.152;2023-04-23T07:40:01;4.88;;;2.90;;
24801;SDS011;12898;50.520;12.152;2023-04-23T07:42:27;6.53;;;3.33;;
24801;SDS011;12898;50.520;12.152;2023-04-23T07:44:52;6.32;;;3.10;;
24801;SDS011;12898;50.520;12.152;2023-04-23T07:47:18;5.07;;;2.92;;
24801;SDS011;12898;50.520;12.152;2023-04-23T07:49:44;6.65;;;3.03;;
24801;SDS011;12898;50.520;12.152;2023-04-23T07:52:10;3.85;;;2.90;;
24801;SDS011;12898;50.520;12.152;2023-04-23T07:54:36;5.22;;;2.97;;
24801;SDS011;12898;50.520;12.152;2023-04-23T07:57:01;5.18;;;2.97;;
24801;SDS011;12898;50.520;12.152;2023-04-23T07:59:28;3.67;;;2.80;;
24801;SDS011;12898;50.520;12.152;2023-04-23T08:01:53;4.95;;;3.10;;
24801;SDS011;12898;50.520;12.152;2023-04-23T08:04:19;4.82;;;2.60;;
24801;SDS011;12898;50.520;12.152;2023-04-23T08:06:45;3.60;;;2.80;;
24801;SDS011;12898;50.520;12.152;2023-04-23T08:09:10;5.40;;;2.90;;
24801;SDS011;12898;50.520;12.152;2023-04-23T08:11:36;4.88;;;3.00;;
24801;SDS011;12898;50.520;12.152;2023-04-23T08:14:02;6.28;;;2.72;;
24801;SDS011;12898;50.520;12.152;2023-04-23T08:16:28;4.43;;;2.90;;
24801;SDS011;12898;50.520;12.152;2023-04-23T08:18:53;5.65;;;3.03;;
24801;SDS011;12898;50.520;12.152;2023-04-23T08:21:19;8.23;;;3.38;;
24801;SDS011;12898;50.520;12.152;2023-04-23T08:23:46;5.30;;;2.85;;
24801;SDS011;12898;50.520;12.152;2023-04-23T08:26:12;5.00;;;2.72;;
24801;SDS011;12898;50.520;12.152;2023-04-23T08:28:37;5.90;;;2.95;;
24801;SDS011;12898;50.520;12.152;2023-04-23T08:31:03;5.47;;;2.60;;
24801;SDS011;12898;50.520;12.152;2023-04-23T08:33:29;3.78;;;2.75;;
24801;SDS011;12898;50.520;12.152;2023-04-23T08:35:54;4.22;;;2.72;;
24801;SDS011;12898;50.520;12.152;2023-04-23T08:38:20;5.07;;;2.92;;
24801;SDS011;12898;50.520;12.152;2023-04-23T08:40:46;6.30;;;3.08;;
24801;SDS011;12898;50.520;12.152;2023-04-23T08:43:19;5.93;;;2.80;;
24801;SDS011;12898;50.520;12.152;2023-04-23T08:45:45;6.75;;;2.72;;
24801;SDS011;12898;50.520;12.152;2023-04-23T08:48:13;4.78;;;2.80;;
24801;SDS011;12898;50.520;12.152;2023-04-23T08:50:42;6.32;;;2.53;;
24801;SDS011;12898;50.520;12.152;2023-04-23T08:53:10;3.88;;;2.67;;
24801;SDS011;12898;50.520;12.152;2023-04-23T08:55:42;3.33;;;2.33;;
24801;SDS011;12898;50.520;12.152;2023-04-23T08:58:09;5.03;;;2.70;;
24801;SDS011;12898;50.520;12.152;2023-04-23T09:00:35;4.50;;;2.20;;
24801;SDS011;12898;50.520;12.152;2023-04-23T09:03:01;4.82;;;2.17;;
24801;SDS011;12898;50.520;12.152;2023-04-23T09:05:27;4.05;;;2.22;;
24801;SDS011;12898;50.520;12.152;2023-04-23T09:07:53;4.25;;;2.40;;
24801;SDS011;12898;50.520;12.152;2023-04-23T09:10:18;4.15;;;2.40;;
24801;SDS011;12898;50.520;12.152;2023-04-23T09:12:44;3.15;;;2.20;;
24801;SDS011;12898;50.520;12.152;2023-04-23T09:15:12;4.60;;;2.25;;
24801;SDS011;12898;50.520;12.152;2023-04-23T09:17:38;3.53;;;2.47;;
24801;SDS011;12898;50.520;12.152;2023-04-23T09:20:08;3.58;;;2.28;;
24801;SDS011;12898;50.520;12.152;2023-04-23T09:22:44;4.00;;;2.35;;
24801;SDS011;12898;50.520;12.152;2023-04-23T09:25:13;3.72;;;2.22;;
24801;SDS011;12898;50.520;12.152;2023-04-23T09:27:41;5.65;;;2.13;;
24801;SDS011;12898;50.520;12.152;2023-04-23T09:30:08;3.03;;;2.25;;
24801;SDS011;12898;50.520;12.152;2023-04-23T09:32:36;3.88;;;2.13;;
24801;SDS011;12898;50.520;12.152;2023-04-23T09:35:06;4.63;;;2.05;;
24801;SDS011;12898;50.520;12.152;2023-04-23T09:37:37;3.50;;;2.50;;
24801;SDS011;12898;50.520;12.152;2023-04-23T09:40:07;3.20;;;2.58;;
24801;SDS011;12898;50.520;12.152;2023-04-23T09:42:34;2.78;;;2.00;;
24801;SDS011;12898;50.520;12.152;2023-04-23T09:45:04;4.28;;;2.20;;
24801;SDS011;12898;50.520;12.152;2023-04-23T09:47:34;3.60;;;2.00;;
24801;SDS011;12898;50.520;12.152;2023-04-23T09:50:03;4.80;;;2.38;;
24801;SDS011;12898;50.520;12.152;2023-04-23T09:52:32;3.13;;;2.20;;
24801;SDS011;12898;50.520;12.152;2023-04-23T09:55:03;3.03;;;2.03;;
24801;SDS011;12898;50.520;12.152;2023-04-23T09:57:34;4.57;;;2.10;;
24801;SDS011;12898;50.520;12.152;2023-04-23T10:00:11;3.65;;;2.15;;
24801;SDS011;12898;50.520;12.152;2023-04-23T10:02:46;3.80;;;2.05;;
24801;SDS011;12898;50.520;12.152;2023-04-23T10:05:14;2.70;;;2.08;;
24801;SDS011;12898;50.520;12.152;2023-04-23T10:07:45;3.35;;;2.28;;
24801;SDS011;12898;50.520;12.152;2023-04-23T10:10:15;3.90;;;2.15;;
24801;SDS011;12898;50.520;12.152;2023-04-23T10:12:44;3.50;;;1.80;;
24801;SDS011;12898;50.520;12.152;2023-04-23T10:15:11;2.97;;;2.10;;
24801;SDS011;12898;50.520;12.152;2023-04-23T10:17:38;3.33;;;1.98;;
24801;SDS011;12898;50.520;12.152;2023-04-23T10:20:05;3.75;;;1.92;;
24801;SDS011;12898;50.520;12.152;2023-04-23T10:22:33;2.08;;;1.88;;
24801;SDS011;12898;50.520;12.152;2023-04-23T10:25:04;2.00;;;1.73;;
24801;SDS011;12898;50.520;12.152;2023-04-23T10:27:36;2.60;;;1.83;;
24801;SDS011;12898;50.520;12.152;2023-04-23T10:30:07;2.67;;;1.90;;
24801;SDS011;12898;50.520;12.152;2023-04-23T10:32:35;4.03;;;2.38;;
24801;SDS011;12898;50.520;12.152;2023-04-23T10:35:03;2.63;;;1.80;;
24801;SDS011;12898;50.520;12.152;2023-04-23T10:37:30;4.03;;;2.10;;
24801;SDS011;12898;50.520;12.152;2023-04-23T10:39:58;2.55;;;1.80;;
24801;SDS011;12898;50.520;12.152;2023-04-23T10:42:38;2.00;;;1.80;;
24801;SDS011;12898;50.520;12.152;2023-04-23T10:45:18;1.88;;;1.60;;
24801;SDS011;12898;50.520;12.152;2023-04-23T10:47:46;4.43;;;1.80;;
24801;SDS011;12898;50.520;12.152;2023-04-23T10:50:28;3.05;;;2.25;;
24801;SDS011;12898;50.520;12.152;2023-04-23T10:52:59;2.65;;;2.05;;
24801;SDS011;12898;50.520;12.152;2023-04-23T10:55:30;5.25;;;2.40;;
24801;SDS011;12898;50.520;12.152;2023-04-23T10:58:01;3.60;;;1.90;;
24801;SDS011;12898;50.520;12.152;2023-04-23T11:06:06;2.83;;;2.00;;
24801;SDS011;12898;50.520;12.152;2023-04-23T11:08:36;2.70;;;1.88;;
24801;SDS011;12898;50.520;12.152;2023-04-23T11:11:05;4.57;;;2.28;;
24801;SDS011;12898;50.520;12.152;2023-04-23T11:13:32;4.90;;;1.88;;
24801;SDS011;12898;50.520;12.152;2023-04-23T11:16:11;3.58;;;1.55;;
24801;SDS011;12898;50.520;12.152;2023-04-23T11:18:54;3.88;;;1.52;;
24801;SDS011;12898;50.520;12.152;2023-04-23T11:24:48;3.22;;;1.70;;
24801;SDS011;12898;50.520;12.152;2023-04-23T11:27:15;2.05;;;1.50;;
24801;SDS011;12898;50.520;12.152;2023-04-23T11:29:43;4.40;;;1.60;;
24801;SDS011;12898;50.520;12.152;2023-04-23T11:32:10;2.47;;;1.60;;
24801;SDS011;12898;50.520;12.152;2023-04-23T11:34:41;1.52;;;1.33;;
24801;SDS011;12898;50.520;12.152;2023-04-23T11:37:09;3.03;;;1.95;;
24801;SDS011;12898;50.520;12.152;2023-04-23T11:39:36;2.40;;;1.70;;
24801;SDS011;12898;50.520;12.152;2023-04-23T11:42:02;3.80;;;1.50;;
24801;SDS011;12898;50.520;12.152;2023-04-23T11:44:32;4.18;;;1.63;;
24801;SDS011;12898;50.520;12.152;2023-04-23T11:47:02;3.53;;;1.83;;
24801;SDS011;12898;50.520;12.152;2023-04-23T11:49:28;1.77;;;1.48;;
24801;SDS011;12898;50.520;12.152;2023-04-23T11:51:54;2.05;;;1.52;;
24801;SDS011;12898;50.520;12.152;2023-04-23T11:54:23;2.30;;;1.50;;
24801;SDS011;12898;50.520;12.152;2023-04-23T11:56:53;3.92;;;1.58;;
24801;SDS011;12898;50.520;12.152;2023-04-23T11:59:20;1.45;;;1.35;;
24801;SDS011;12898;50.520;12.152;2023-04-23T12:01:48;2.00;;;1.55;;
24801;SDS011;12898;50.520;12.152;2023-04-23T12:04:20;3.35;;;1.67;;
24801;SDS011;12898;50.520;12.152;2023-04-23T12:06:48;1.75;;;1.40;;
24801;SDS011;12898;50.520;12.152;2023-04-23T12:09:17;2.83;;;1.15;;
24801;SDS011;12898;50.520;12.152;2023-04-23T12:11:45;3.13;;;1.58;;
24801;SDS011;12898;50.520;12.152;2023-04-23T12:14:13;1.77;;;1.40;;
24801;SDS011;12898;50.520;12.152;2023-04-23T12:16:40;1.73;;;1.40;;
24801;SDS011;12898;50.520;12.152;2023-04-23T12:19:12;1.00;;;1.00;;
24801;SDS011;12898;50.520;12.152;2023-04-23T12:21:49;1.80;;;1.52;;
24801;SDS011;12898;50.520;12.152;2023-04-23T12:24:22;1.77;;;1.40;;
24801;SDS011;12898;50.520;12.152;2023-04-23T12:27:12;2.08;;;1.50;;
24801;SDS011;12898;50.520;12.152;2023-04-23T12:29:39;3.05;;;1.27;;
24801;SDS011;12898;50.520;12.152;2023-04-23T12:32:08;1.40;;;1.30;;
24801;SDS011;12898;50.520;12.152;2023-04-23T12:34:35;1.80;;;1.27;;
24801;SDS011;12898;50.520;12.152;2023-04-23T12:37:04;3.05;;;1.55;;
24801;SDS011;12898;50.520;12.152;2023-04-23T12:39:31;1.73;;;1.42;;
24801;SDS011;12898;50.520;12.152;2023-04-23T12:44:35;1.83;;;1.50;;
24801;SDS011;12898;50.520;12.152;2023-04-23T12:47:03;3.33;;;1.50;;
24801;SDS011;12898;50.520;12.152;2023-04-23T12:49:32;1.90;;;1.48;;
24801;SDS011;12898;50.520;12.152;2023-04-23T12:52:00;1.83;;;1.58;;
24801;SDS011;12898;50.520;12.152;2023-04-23T12:54:29;5.93;;;2.42;;
24801;SDS011;12898;50.520;12.152;2023-04-23T12:56:57;1.80;;;1.40;;
24801;SDS011;12898;50.520;12.152;2023-04-23T12:59:24;1.30;;;1.13;;
24801;SDS011;12898;50.520;12.152;2023-04-23T13:01:50;3.22;;;1.42;;
24801;SDS011;12898;50.520;12.152;2023-04-23T13:04:16;1.70;;;1.60;;
24801;SDS011;12898;50.520;12.152;2023-04-23T13:06:42;2.50;;;1.30;;
24801;SDS011;12898;50.520;12.152;2023-04-23T13:09:08;1.55;;;1.30;;
24801;SDS011;12898;50.520;12.152;2023-04-23T13:11:40;2.13;;;1.40;;
24801;SDS011;12898;50.520;12.152;2023-04-23T13:14:06;1.98;;;1.30;;
24801;SDS011;12898;50.520;12.152;2023-04-23T13:16:33;2.17;;;1.33;;
24801;SDS011;12898;50.520;12.152;2023-04-23T13:18:59;2.05;;;1.50;;
24801;SDS011;12898;50.520;12.152;2023-04-23T13:21:25;1.88;;;1.45;;
24801;SDS011;12898;50.520;12.152;2023-04-23T13:23:51;1.83;;;1.40;;
24801;SDS011;12898;50.520;12.152;2023-04-23T13:26:17;2.05;;;1.20;;
24801;SDS011;12898;50.520;12.152;2023-04-23T13:28:43;2.10;;;1.60;;
24801;SDS011;12898;50.520;12.152;2023-04-23T13:31:09;1.45;;;1.30;;
24801;SDS011;12898;50.520;12.152;2023-04-23T13:33:36;1.92;;;1.38;;
24801;SDS011;12898;50.520;12.152;2023-04-23T13:36:03;2.28;;;1.50;;
24801;SDS011;12898;50.520;12.152;2023-04-23T13:38:30;2.17;;;1.35;;
24801;SDS011;12898;50.520;12.152;2023-04-23T13:40:56;1.45;;;1.25;;
24801;SDS011;12898;50.520;12.152;2023-04-23T13:43:21;3.83;;;2.08;;
24801;SDS011;12898;50.520;12.152;2023-04-23T13:45:47;5.20;;;1.50;;
24801;SDS011;12898;50.520;12.152;2023-04-23T13:48:16;2.00;;;1.40;;
24801;SDS011;12898;50.520;12.152;2023-04-23T13:50:42;4.07;;;1.90;;
24801;SDS011;12898;50.520;12.152;2023-04-23T13:53:08;1.77;;;1.40;;
24801;SDS011;12898;50.520;12.152;2023-04-23T13:55:35;1.98;;;1.33;;
24801;SDS011;12898;50.520;12.152;2023-04-23T13:58:02;3.00;;;1.40;;
24801;SDS011;12898;50.520;12.152;2023-04-23T14:00:29;5.30;;;1.80;;
24801;SDS011;12898;50.520;12.152;2023-04-23T14:02:55;3.75;;;1.25;;
24801;SDS011;12898;50.520;12.152;2023-04-23T14:05:21;2.03;;;1.30;;
24801;SDS011;12898;50.520;12.152;2023-04-23T14:07:47;2.42;;;1.52;;
24801;SDS011;12898;50.520;12.152;2023-04-23T14:10:12;1.63;;;1.42;;
24801;SDS011;12898;50.520;12.152;2023-04-23T14:12:41;1.52;;;1.40;;
24801;SDS011;12898;50.520;12.152;2023-04-23T14:15:08;3.13;;;1.50;;
24801;SDS011;12898;50.520;12.152;2023-04-23T14:17:37;2.53;;;1.50;;
24801;SDS011;12898;50.520;12.152;2023-04-23T14:20:04;2.30;;;1.42;;
24801;SDS011;12898;50.520;12.152;2023-04-23T14:22:31;2.25;;;1.40;;
24801;SDS011;12898;50.520;12.152;2023-04-23T14:25:00;1.50;;;1.35;;
24801;SDS011;12898;50.520;12.152;2023-04-23T14:27:38;4.40;;;1.83;;
24801;SDS011;12898;50.520;12.152;2023-04-23T14:30:16;3.05;;;1.58;;
24801;SDS011;12898;50.520;12.152;2023-04-23T14:32:44;1.83;;;1.33;;
24801;SDS011;12898;50.520;12.152;2023-04-23T14:35:13;2.50;;;1.60;;
24801;SDS011;12898;50.520;12.152;2023-04-23T14:37:40;1.85;;;1.50;;
24801;SDS011;12898;50.520;12.152;2023-04-23T14:40:13;5.32;;;1.48;;
24801;SDS011;12898;50.520;12.152;2023-04-23T14:42:44;2.05;;;1.40;;
24801;SDS011;12898;50.520;12.152;2023-04-23T14:45:11;2.08;;;1.50;;